createdAt,value
2018-06-21T00:01:07.180Z,6.20
2018-06-21T00:03:41.302Z,6.55
2018-06-21T00:06:15.696Z,6.00
2018-06-21T00:08:50.521Z,5.47
2018-06-21T00:11:24.749Z,6.33
2018-06-21T00:13:58.729Z,7.95
2018-06-21T00:16:32.615Z,6.20
2018-06-21T00:19:06.503Z,8.95
2018-06-21T00:21:40.890Z,5.55
2018-06-21T00:24:15.106Z,6.70
2018-06-21T00:26:49.072Z,9.15
2018-06-21T00:29:23.192Z,6.47
2018-06-21T00:31:56.973Z,7.30
2018-06-21T00:34:31.104Z,6.28
2018-06-21T00:37:04.952Z,7.20
2018-06-21T00:39:38.948Z,5.67
2018-06-21T00:42:12.717Z,5.25
2018-06-21T00:44:46.761Z,5.53
2018-06-21T00:47:20.933Z,5.60
2018-06-21T00:49:54.854Z,6.85
2018-06-21T00:52:28.711Z,6.10
2018-06-21T00:55:02.825Z,6.83
2018-06-21T00:57:36.824Z,5.60
2018-06-21T01:00:11.184Z,5.87
2018-06-21T01:02:49.151Z,5.75
2018-06-21T01:05:23.441Z,5.80
2018-06-21T01:07:57.235Z,6.83
2018-06-21T01:10:31.714Z,5.30
2018-06-21T01:13:06.002Z,5.22
2018-06-21T01:15:39.875Z,5.28
2018-06-21T01:18:13.824Z,5.47
2018-06-21T01:20:48.063Z,5.70
2018-06-21T01:23:21.960Z,4.95
2018-06-21T01:25:55.956Z,5.78
2018-06-21T01:28:29.988Z,6.08
2018-06-21T01:31:04.114Z,6.53
2018-06-21T01:33:37.917Z,6.10
2018-06-21T01:36:11.871Z,6.58
2018-06-21T01:38:45.925Z,6.47
2018-06-21T01:41:20.127Z,6.95
2018-06-21T01:43:54.080Z,6.62
2018-06-21T01:46:28.259Z,5.60
2018-06-21T01:49:02.250Z,6.87
2018-06-21T01:51:36.813Z,7.50
2018-06-21T01:54:10.665Z,7.85
2018-06-21T01:56:44.678Z,6.35
2018-06-21T01:59:18.581Z,5.92
2018-06-21T02:01:52.546Z,7.42
2018-06-21T02:04:26.563Z,5.97
2018-06-21T02:07:00.743Z,6.30
2018-06-21T02:09:34.461Z,8.70
2018-06-21T02:14:49.228Z,6.90
2018-06-21T02:17:23.435Z,6.95
2018-06-21T02:19:57.314Z,6.97
2018-06-21T02:22:32.638Z,6.85
2018-06-21T02:25:06.558Z,8.20
2018-06-21T02:27:40.570Z,6.53
2018-06-21T02:30:14.434Z,6.10
2018-06-21T02:32:48.583Z,9.38
2018-06-21T02:35:22.681Z,6.65
2018-06-21T02:37:56.643Z,6.65
2018-06-21T02:40:30.553Z,6.15
2018-06-21T02:43:05.209Z,7.45
2018-06-21T02:45:39.409Z,7.08
2018-06-21T02:48:13.608Z,6.65
2018-06-21T02:50:47.713Z,8.80
2018-06-21T02:53:21.599Z,6.28
2018-06-21T02:55:55.747Z,7.45
2018-06-21T02:58:29.751Z,7.83
2018-06-21T03:01:03.797Z,8.30
2018-06-21T03:03:37.685Z,8.53
2018-06-21T03:06:11.810Z,7.53
2018-06-21T03:08:45.546Z,9.67
2018-06-21T03:11:19.236Z,7.03
2018-06-21T03:13:53.477Z,8.70
2018-06-21T03:16:27.384Z,10.63
2018-06-21T03:19:01.249Z,9.20
2018-06-21T03:21:38.639Z,8.73
2018-06-21T03:24:12.699Z,9.00
2018-06-21T03:26:46.623Z,8.50
2018-06-21T03:29:20.568Z,9.37
2018-06-21T03:31:54.505Z,7.72
2018-06-21T03:34:28.330Z,7.40
2018-06-21T03:37:02.286Z,10.55
2018-06-21T03:39:36.569Z,7.87
2018-06-21T03:42:10.450Z,8.53
2018-06-21T03:44:44.786Z,11.20
2018-06-21T03:47:18.746Z,8.63
2018-06-21T03:49:52.731Z,8.75
2018-06-21T03:52:26.848Z,10.50
2018-06-21T03:55:01.174Z,6.80
2018-06-21T03:57:35.491Z,7.50
2018-06-21T04:00:09.292Z,8.58
2018-06-21T04:02:43.256Z,8.58
2018-06-21T04:05:17.280Z,9.00
2018-06-21T04:07:51.468Z,10.55
2018-06-21T04:10:25.391Z,8.63
2018-06-21T04:12:59.613Z,11.63
2018-06-21T04:15:33.760Z,12.95
2018-06-21T04:18:07.825Z,8.55
2018-06-21T04:20:41.533Z,7.45
2018-06-21T04:23:16.019Z,7.92
2018-06-21T04:25:50.016Z,8.03
2018-06-21T04:28:24.021Z,9.85
2018-06-21T04:30:58.580Z,8.38
2018-06-21T04:33:32.328Z,9.75
2018-06-21T04:36:06.329Z,9.98
2018-06-21T04:38:40.735Z,12.50
2018-06-21T04:41:14.610Z,11.08
2018-06-21T04:43:49.023Z,12.18
2018-06-21T04:46:23.035Z,10.32
2018-06-21T04:48:57.185Z,8.78
2018-06-21T04:51:30.924Z,10.70
2018-06-21T04:54:05.134Z,8.43
2018-06-21T04:56:39.533Z,9.08
2018-06-21T04:59:13.459Z,9.23
2018-06-21T05:01:47.574Z,9.70
2018-06-21T05:04:21.641Z,11.15
2018-06-21T05:06:55.649Z,9.83
2018-06-21T05:09:29.511Z,9.68
2018-06-21T05:12:03.441Z,10.60
2018-06-21T05:14:41.864Z,11.88
2018-06-21T05:17:15.800Z,9.85
2018-06-21T05:19:50.041Z,9.38
2018-06-21T05:22:24.075Z,8.80
2018-06-21T05:24:58.241Z,9.40
2018-06-21T05:27:32.104Z,10.13
2018-06-21T05:30:06.169Z,10.48
2018-06-21T05:32:40.761Z,11.25
2018-06-21T05:35:15.090Z,10.18
2018-06-21T05:37:49.051Z,10.13
2018-06-21T05:40:29.465Z,11.33
2018-06-21T05:43:04.070Z,13.72
2018-06-21T05:45:38.033Z,11.53
2018-06-21T05:48:12.071Z,11.55
2018-06-21T05:50:46.151Z,12.50
2018-06-21T05:53:20.183Z,11.75
2018-06-21T05:55:54.659Z,12.37
2018-06-21T05:58:28.648Z,10.98
2018-06-21T06:01:02.605Z,12.60
2018-06-21T06:03:36.731Z,19.92
2018-06-21T06:06:10.864Z,15.28
2018-06-21T06:08:44.811Z,14.05
2018-06-21T06:11:18.649Z,16.30
2018-06-21T06:13:52.610Z,13.45
2018-06-21T06:16:27.289Z,11.48
2018-06-21T06:19:01.353Z,14.13
2018-06-21T06:21:35.532Z,12.95
2018-06-21T06:24:09.686Z,15.88
2018-06-21T06:26:43.540Z,14.23
2018-06-21T06:29:17.360Z,19.30
2018-06-21T06:31:51.447Z,15.65
2018-06-21T06:34:25.589Z,19.62
2018-06-21T06:36:59.416Z,19.25
2018-06-21T06:39:33.624Z,18.70
2018-06-21T06:42:07.707Z,30.52
2018-06-21T06:44:41.596Z,35.03
2018-06-21T06:47:16.192Z,32.28
2018-06-21T06:49:50.406Z,28.38
2018-06-21T06:52:25.312Z,30.72
2018-06-21T06:54:59.502Z,28.45
2018-06-21T06:57:33.442Z,24.60
2018-06-21T07:00:07.624Z,26.68
2018-06-21T07:02:42.885Z,26.50
2018-06-21T07:05:16.960Z,27.35
2018-06-21T07:07:51.014Z,33.05
2018-06-21T07:10:25.194Z,30.40
2018-06-21T07:12:59.446Z,37.45
2018-06-21T07:15:33.552Z,38.35
2018-06-21T07:18:07.514Z,45.75
2018-06-21T07:20:41.708Z,49.83
2018-06-21T07:23:16.206Z,52.88
2018-06-21T07:25:50.741Z,57.03
2018-06-21T07:28:25.028Z,58.65
2018-06-21T07:31:03.991Z,62.45
2018-06-21T07:33:37.927Z,58.00
2018-06-21T07:36:11.892Z,64.60
2018-06-21T07:38:45.881Z,54.15
2018-06-21T07:41:19.776Z,42.85
2018-06-21T07:43:53.991Z,36.63
2018-06-21T07:46:28.025Z,40.00
2018-06-21T07:49:02.455Z,39.83
2018-06-21T07:51:36.675Z,30.23
2018-06-21T07:54:10.631Z,30.97
2018-06-21T07:56:44.921Z,22.93
2018-06-21T07:59:18.781Z,19.87
2018-06-21T08:01:52.495Z,13.67
2018-06-21T08:04:26.429Z,17.20
2018-06-21T08:07:01.102Z,8.33
2018-06-21T08:09:35.275Z,8.70
2018-06-21T08:12:09.192Z,9.00
2018-06-21T08:14:43.306Z,7.50
2018-06-21T08:17:17.506Z,8.43
2018-06-21T08:19:51.381Z,8.50
2018-06-21T08:22:25.370Z,8.07
2018-06-21T08:24:59.243Z,9.07
2018-06-21T08:27:33.894Z,8.63
2018-06-21T08:30:08.219Z,9.43
2018-06-21T08:32:42.271Z,9.40
2018-06-21T08:35:16.717Z,8.03
2018-06-21T08:37:50.672Z,7.37
2018-06-21T08:40:24.671Z,6.03
2018-06-21T08:42:58.726Z,7.43
2018-06-21T08:45:32.780Z,6.90
2018-06-21T08:48:06.779Z,9.00
2018-06-21T08:50:40.956Z,7.17
2018-06-21T08:53:15.151Z,7.07
2018-06-21T08:55:49.215Z,7.30
2018-06-21T08:58:23.187Z,9.30
2018-06-21T09:00:56.955Z,7.67
2018-06-21T09:03:30.981Z,7.80
2018-06-21T09:06:05.785Z,9.03
2018-06-21T09:08:39.684Z,8.23
2018-06-21T09:11:13.832Z,8.73
2018-06-21T09:13:47.777Z,7.87
2018-06-21T09:16:22.002Z,7.73
2018-06-21T09:18:55.902Z,8.10
2018-06-21T09:21:30.216Z,9.43
2018-06-21T09:24:04.364Z,10.27
2018-06-21T09:26:38.367Z,8.33
2018-06-21T09:29:12.438Z,7.80
2018-06-21T09:31:46.606Z,8.97
2018-06-21T09:34:20.756Z,10.13
2018-06-21T09:36:54.870Z,9.13
2018-06-21T09:39:34.604Z,12.70
2018-06-21T09:42:14.710Z,10.77
2018-06-21T09:44:54.500Z,6.53
2018-06-21T09:47:34.144Z,10.60
2018-06-21T09:50:08.434Z,8.93
2018-06-21T09:52:43.201Z,7.70
2018-06-21T09:55:17.238Z,6.83
2018-06-21T09:57:51.151Z,8.87
2018-06-21T10:00:30.748Z,6.53
2018-06-21T10:03:04.668Z,8.17
2018-06-21T10:05:38.481Z,7.03
2018-06-21T10:08:12.615Z,9.50
2018-06-21T10:10:46.634Z,8.38
2018-06-21T10:13:20.672Z,5.45
2018-06-21T10:15:55.041Z,7.80
2018-06-21T10:18:29.139Z,5.47
2018-06-21T10:21:03.345Z,7.90
2018-06-21T10:23:37.301Z,7.12
2018-06-21T10:26:11.863Z,5.65
2018-06-21T10:28:46.128Z,6.57
2018-06-21T10:31:20.585Z,4.33
2018-06-21T10:33:55.032Z,6.15
2018-06-21T10:36:29.891Z,5.45
2018-06-21T10:39:06.022Z,11.65
2018-06-21T10:41:40.193Z,7.87
2018-06-21T10:44:14.667Z,5.28
2018-06-21T10:46:48.419Z,5.33
2018-06-21T10:49:22.468Z,8.98
2018-06-21T10:51:56.471Z,5.25
2018-06-21T10:54:30.352Z,6.25
2018-06-21T10:57:04.185Z,7.75
2018-06-21T10:59:38.295Z,6.25
2018-06-21T11:02:13.036Z,5.90
2018-06-21T11:04:47.233Z,7.33
2018-06-21T11:07:21.415Z,6.53
2018-06-21T11:09:55.669Z,3.58
2018-06-21T11:12:30.004Z,6.17
2018-06-21T11:15:04.110Z,4.92
2018-06-21T11:17:38.285Z,9.08
2018-06-21T11:20:12.876Z,7.73
2018-06-21T11:22:46.990Z,3.87
2018-06-21T11:25:20.772Z,6.70
2018-06-21T11:27:55.117Z,8.58
2018-06-21T11:30:29.246Z,6.87
2018-06-21T11:33:03.254Z,8.70
2018-06-21T11:35:37.548Z,7.28
2018-06-21T11:38:11.495Z,7.10
2018-06-21T11:40:45.307Z,4.75
2018-06-21T11:43:19.418Z,6.53
2018-06-21T11:45:53.656Z,4.72
2018-06-21T11:48:27.921Z,6.15
2018-06-21T11:51:02.003Z,5.35
2018-06-21T11:53:36.243Z,5.17
2018-06-21T11:56:10.181Z,4.85
2018-06-21T11:58:44.364Z,9.25
2018-06-21T12:01:18.700Z,5.15
2018-06-21T12:03:52.612Z,10.93
2018-06-21T12:06:27.358Z,6.17
2018-06-21T12:09:01.604Z,6.15
2018-06-21T12:11:35.805Z,7.33
2018-06-21T12:14:10.279Z,6.62
2018-06-21T12:16:44.670Z,4.85
2018-06-21T12:19:18.777Z,6.60
2018-06-21T12:21:52.720Z,6.55
2018-06-21T12:24:28.161Z,8.33
2018-06-21T12:27:02.596Z,7.58
2018-06-21T12:29:36.400Z,6.62
2018-06-21T12:32:10.645Z,14.05
2018-06-21T12:34:44.807Z,5.83
2018-06-21T12:37:30.281Z,7.75
2018-06-21T12:40:04.276Z,3.33
2018-06-21T12:42:38.329Z,7.20
2018-06-21T12:45:12.176Z,7.92
2018-06-21T12:47:46.396Z,8.20
2018-06-21T12:50:20.503Z,7.30
2018-06-21T12:52:54.485Z,4.65
2018-06-21T12:55:28.459Z,4.92
2018-06-21T12:58:02.582Z,5.75
2018-06-21T13:00:38.045Z,6.40
2018-06-21T13:03:11.957Z,6.35
2018-06-21T13:05:45.986Z,6.72
2018-06-21T13:08:32.202Z,5.75
2018-06-21T13:12:19.160Z,4.80
2018-06-21T13:14:53.765Z,6.97
2018-06-21T13:17:29.036Z,6.35
2018-06-21T13:20:04.161Z,4.87
2018-06-21T13:22:38.314Z,4.30
2018-06-21T13:25:12.406Z,5.95
2018-06-21T13:27:46.525Z,10.28
2018-06-21T13:30:21.713Z,5.12
2018-06-21T13:32:56.300Z,6.28
2018-06-21T13:35:30.432Z,6.85
2018-06-21T13:38:04.680Z,5.90
2018-06-21T13:40:38.539Z,6.60
2018-06-21T13:43:12.963Z,5.65
2018-06-21T13:45:47.099Z,6.12
2018-06-21T13:48:21.684Z,7.40
2018-06-21T13:50:56.125Z,8.13
2018-06-21T13:53:30.499Z,8.18
2018-06-21T13:56:04.653Z,11.10
2018-06-21T13:58:38.880Z,5.97
2018-06-21T14:01:13.323Z,4.37
2018-06-21T14:03:47.281Z,6.37
2018-06-21T14:06:21.363Z,8.80
2018-06-21T14:08:59.834Z,9.03
2018-06-21T14:11:33.969Z,6.75
2018-06-21T14:14:08.310Z,4.85
2018-06-21T14:16:42.209Z,6.28
2018-06-21T14:19:16.540Z,4.65
2018-06-21T14:21:50.651Z,7.35
2018-06-21T14:24:25.159Z,17.32
2018-06-21T14:26:59.387Z,9.63
2018-06-21T14:29:36.473Z,8.40
2018-06-21T14:32:10.578Z,6.30
2018-06-21T14:34:44.709Z,4.97
2018-06-21T14:37:18.737Z,6.20
2018-06-21T14:39:53.024Z,5.55
2018-06-21T14:42:27.197Z,7.55
2018-06-21T14:45:01.511Z,2.92
2018-06-21T14:47:35.635Z,7.03
2018-06-21T14:50:09.740Z,6.75
2018-06-21T14:52:43.848Z,8.63
2018-06-21T14:55:17.938Z,6.47
2018-06-21T14:57:51.916Z,5.50
2018-06-21T15:00:26.291Z,3.83
2018-06-21T15:03:00.465Z,6.70
2018-06-21T15:05:35.073Z,7.25
2018-06-21T15:08:09.746Z,2.75
2018-06-21T15:10:43.933Z,6.78
2018-06-21T15:13:18.066Z,4.92
2018-06-21T15:15:52.074Z,3.72
2018-06-21T15:18:26.111Z,3.75
2018-06-21T15:21:00.545Z,5.95
2018-06-21T15:23:34.633Z,5.70
2018-06-21T15:26:08.710Z,3.70
2018-06-21T15:28:43.230Z,4.10
2018-06-21T15:31:17.191Z,8.00
2018-06-21T15:33:51.391Z,5.37
2018-06-21T15:36:28.541Z,4.80
2018-06-21T15:39:12.701Z,4.58
2018-06-21T15:41:47.045Z,4.53
2018-06-21T15:44:20.965Z,7.12
2018-06-21T15:47:01.821Z,5.97
2018-06-21T15:49:35.773Z,5.58
2018-06-21T15:52:09.781Z,4.72
2018-06-21T15:54:44.055Z,10.65
2018-06-21T15:57:17.927Z,5.80
2018-06-21T15:59:52.023Z,6.00
2018-06-21T16:02:26.011Z,9.00
2018-06-21T16:05:00.140Z,6.75
2018-06-21T16:07:34.404Z,6.10
2018-06-21T16:10:08.516Z,5.85
2018-06-21T16:12:43.475Z,3.35
2018-06-21T16:15:17.832Z,6.33
2018-06-21T16:18:00.328Z,9.50
2018-06-21T16:20:34.506Z,9.75
2018-06-21T16:23:08.703Z,6.65
2018-06-21T16:25:42.748Z,7.30
2018-06-21T16:28:16.911Z,5.62
2018-06-21T16:30:51.371Z,5.92
2018-06-21T16:33:25.348Z,4.87
2018-06-21T16:35:59.908Z,7.50
2018-06-21T16:38:34.276Z,3.30
2018-06-21T16:41:08.392Z,6.47
2018-06-21T16:43:42.415Z,5.20
2018-06-21T16:46:16.609Z,5.53
2018-06-21T16:48:50.506Z,4.45
2018-06-21T16:51:24.744Z,2.15
2018-06-21T16:53:58.682Z,4.62
2018-06-21T16:56:33.434Z,5.58
2018-06-21T16:59:07.700Z,5.22
2018-06-21T17:01:41.917Z,4.70
2018-06-21T17:04:16.258Z,5.60
2018-06-21T17:06:50.666Z,2.37
2018-06-21T17:09:25.461Z,5.12
2018-06-21T17:11:59.623Z,8.18
2018-06-21T17:14:33.973Z,2.40
2018-06-21T17:17:08.365Z,3.77
2018-06-21T17:19:42.822Z,4.90
2018-06-21T17:22:17.161Z,5.95
2018-06-21T17:24:51.496Z,6.63
2018-06-21T17:27:26.140Z,6.60
2018-06-21T17:30:01.126Z,5.00
2018-06-21T17:32:35.639Z,6.23
2018-06-21T17:35:10.015Z,3.47
2018-06-21T17:37:43.888Z,6.00
2018-06-21T17:40:17.915Z,3.03
2018-06-21T17:42:51.995Z,5.60
2018-06-21T17:45:26.261Z,3.90
2018-06-21T17:48:00.506Z,3.02
2018-06-21T17:50:34.670Z,3.97
2018-06-21T17:53:08.796Z,3.00
2018-06-21T17:55:43.055Z,5.00
2018-06-21T17:58:17.764Z,1.37
2018-06-21T18:00:51.873Z,2.33
2018-06-21T18:03:26.157Z,2.27
2018-06-21T18:06:00.324Z,3.43
2018-06-21T18:08:34.523Z,2.73
2018-06-21T18:11:08.961Z,2.50
2018-06-21T18:13:43.217Z,5.33
2018-06-21T18:16:17.295Z,5.80
2018-06-21T18:18:52.258Z,2.03
2018-06-21T18:21:26.477Z,3.17
2018-06-21T18:24:00.912Z,2.70
2018-06-21T18:26:39.544Z,4.70
2018-06-21T18:29:13.628Z,3.77
2018-06-21T18:31:47.761Z,4.43
2018-06-21T18:34:21.751Z,2.30
2018-06-21T18:36:55.751Z,5.37
2018-06-21T18:39:30.492Z,5.00
2018-06-21T18:42:04.763Z,2.40
2018-06-21T18:44:39.190Z,3.23
2018-06-21T18:47:13.477Z,4.83
2018-06-21T18:49:48.833Z,5.73
2018-06-21T18:52:22.652Z,4.53
2018-06-21T18:54:56.913Z,5.33
2018-06-21T18:57:30.811Z,3.60
2018-06-21T19:00:07.207Z,4.80
2018-06-21T19:02:41.466Z,5.07
2018-06-21T19:05:16.263Z,5.00
2018-06-21T19:07:56.166Z,2.33
2018-06-21T19:10:36.146Z,5.37
2018-06-21T19:13:10.312Z,5.07
2018-06-21T19:15:44.778Z,4.43
2018-06-21T19:18:19.133Z,5.73
2018-06-21T19:20:53.648Z,6.97
2018-06-21T19:23:27.782Z,2.43
2018-06-21T19:26:02.266Z,4.57
2018-06-21T19:28:36.414Z,3.17
2018-06-21T19:31:10.457Z,2.53
2018-06-21T19:33:44.869Z,3.20
2018-06-21T19:36:20.186Z,2.80
2018-06-21T19:38:54.535Z,5.20
2018-06-21T19:41:31.713Z,3.77
2018-06-21T19:44:06.110Z,4.30
2018-06-21T19:46:40.702Z,6.23
2018-06-21T19:49:14.708Z,3.53
2018-06-21T19:51:49.063Z,3.77
2018-06-21T19:54:23.006Z,5.10
2018-06-21T19:56:57.249Z,5.10
2018-06-21T19:59:31.363Z,7.10
2018-06-21T20:02:05.629Z,6.30
2018-06-21T20:04:39.871Z,7.40
2018-06-21T20:07:14.406Z,5.07
2018-06-21T20:09:48.816Z,5.00
2018-06-21T20:12:23.365Z,4.10
2018-06-21T20:14:58.035Z,5.73
2018-06-21T20:17:32.317Z,5.23
2018-06-21T20:20:11.661Z,4.37
2018-06-21T20:22:45.821Z,3.43
2018-06-21T20:25:20.020Z,3.20
2018-06-21T20:27:54.429Z,2.83
2018-06-21T20:30:28.811Z,2.67
2018-06-21T20:33:03.022Z,2.87
2018-06-21T20:35:37.680Z,4.77
2018-06-21T20:38:11.621Z,2.53
2018-06-21T20:40:45.857Z,4.47
2018-06-21T20:43:19.849Z,3.87
2018-06-21T20:45:53.987Z,3.73
2018-06-21T20:48:28.411Z,6.70
2018-06-21T20:51:02.537Z,3.80
2018-06-21T20:53:36.687Z,2.43
2018-06-21T20:56:10.887Z,6.10
2018-06-21T20:58:45.543Z,3.70
2018-06-21T21:01:19.462Z,3.90
2018-06-21T21:03:54.866Z,3.10
2018-06-21T21:06:28.689Z,4.27
2018-06-21T21:09:03.037Z,4.57
2018-06-21T21:11:37.303Z,5.87
2018-06-21T21:14:11.317Z,5.03
2018-06-21T21:16:45.626Z,5.50
2018-06-21T21:19:19.976Z,5.47
2018-06-21T21:21:54.396Z,6.30
2018-06-21T21:24:28.424Z,5.30
2018-06-21T21:27:02.470Z,9.10
2018-06-21T21:29:37.058Z,5.20
2018-06-21T21:32:17.924Z,4.43
2018-06-21T21:34:52.355Z,6.13
2018-06-21T21:37:26.997Z,5.07
2018-06-21T21:40:02.115Z,4.80
2018-06-21T21:42:38.098Z,6.67
2018-06-21T21:45:11.961Z,3.70
2018-06-21T21:47:45.896Z,5.63
2018-06-21T21:50:19.900Z,6.60
2018-06-21T21:52:53.832Z,7.93
2018-06-21T21:55:27.833Z,6.57
2018-06-21T21:58:01.798Z,4.23
2018-06-21T22:00:48.685Z,7.43
2018-06-21T22:03:22.679Z,5.20
2018-06-21T22:05:56.855Z,9.60
2018-06-21T22:08:31.595Z,5.97
2018-06-21T22:11:05.821Z,6.23
2018-06-21T22:13:39.872Z,6.30
2018-06-21T22:16:13.975Z,7.40
2018-06-21T22:18:48.236Z,9.40
2018-06-21T22:21:22.150Z,8.50
2018-06-21T22:23:56.050Z,8.70
2018-06-21T22:26:30.691Z,8.63
2018-06-21T22:29:04.784Z,7.03
2018-06-21T22:31:38.936Z,7.30
2018-06-21T22:34:13.233Z,9.63
2018-06-21T22:36:47.842Z,10.10
2018-06-21T22:39:22.206Z,11.43
2018-06-21T22:41:56.446Z,19.37
2018-06-21T22:44:30.502Z,8.73
2018-06-21T22:47:04.805Z,4.63
2018-06-21T22:49:39.004Z,7.53
2018-06-21T22:52:13.021Z,8.37
2018-06-21T22:54:47.425Z,8.10
2018-06-21T22:57:21.465Z,8.90
2018-06-21T22:59:55.919Z,6.87
2018-06-21T23:02:30.292Z,6.03
2018-06-21T23:05:04.215Z,10.97
2018-06-21T23:07:38.134Z,6.37
2018-06-21T23:10:12.207Z,9.00
2018-06-21T23:12:46.591Z,6.53
2018-06-21T23:15:20.378Z,10.50
2018-06-21T23:25:57.295Z,8.27
2018-06-21T23:28:31.688Z,7.10
2018-06-21T23:31:05.524Z,8.10
2018-06-21T23:33:39.603Z,11.20
2018-06-21T23:36:13.672Z,7.03
2018-06-21T23:38:47.699Z,10.80
2018-06-21T23:41:21.470Z,11.23
2018-06-21T23:43:55.905Z,9.83
2018-06-21T23:46:30.124Z,10.43
2018-06-21T23:49:04.020Z,10.93
2018-06-21T23:51:38.733Z,8.90
2018-06-21T23:54:13.690Z,13.87
2018-06-21T23:56:47.464Z,9.37
2018-06-21T23:59:21.696Z,13.13
